< < Back
Terminal Aerodrome Forecast


Current Version              Previous Versions:   1  2  3  4  5  6  7  8  9  

Terminal Aerodrome Forecast

829
FTUS42 KILM 020012 CCA
TAFFLO
TAF COR
KFLO 020012Z 0200/0224 19007KT P6SM SCT040 SCT120
     FM020300 23005KT P6SM VCSH SCT045 BKN080
     FM020700 26004KT P6SM SCT060 BKN200=

Latest METAR

040
SAUS70 KWBC 020800 RRE
MTRFLO
METAR KFLO 020753Z AUTO 21005KT 10SM CLR 24/22 A2994 RMK AO2 SLP134
T02440217


USA.gov is the U.S. government's official web portal to all federal, state and local government web resources and services.